DIAP Airport Information

Runway Information
Runway 03 Length 9843 ft width 164 ft
Elevation 21 ft Threshold 0 ft Heading 23
Runway 21 Length 9843 ft Width 164 ft
Elevation 11 ft Threshold 0 ft Heading 203
Airport Frequencies
Type A/G Name RDO Frequency 568 MHZ
Type ACC Name CON Frequency 121.1 MHZ
Type AFIS Name INFO Frequency 129.1 MHZ
Type ATIS Name ATIS Frequency 126.6 MHZ
Type MISC Name VHF/DF Frequency 118.1 MHZ
Type TWR Name TWR Frequency 118.1 MHZ
Airport Navaids
Type VOR-DME Name Abidjan Frequency 114300 KHZ
Type NDB Name Abidjan Frequency 306 KHZ
Type NDB Name Abidjan Felix Houphouet Boigny Frequency 294 KHZ
Airport Weather Information & NOTAM
DIAP 031400Z 21012KT 9999 FEW015 28/24 Q1012 NOSIG